createdAt,value
2022-07-30T00:01:30.940Z,3.37
2022-07-30T00:04:33.948Z,3.80
2022-07-30T00:07:36.881Z,3.20
2022-07-30T00:10:41.263Z,3.67
2022-07-30T00:13:44.325Z,3.40
2022-07-30T00:16:47.306Z,4.00
2022-07-30T00:19:50.217Z,4.00
2022-07-30T00:22:53.552Z,3.70
2022-07-30T00:25:57.798Z,3.17
2022-07-30T00:29:00.820Z,3.20
2022-07-30T00:32:03.803Z,3.10
2022-07-30T00:35:07.849Z,3.37
2022-07-30T00:38:10.738Z,3.10
2022-07-30T00:41:15.654Z,2.87
2022-07-30T00:44:18.743Z,3.10
2022-07-30T00:47:22.092Z,3.07
2022-07-30T00:50:25.050Z,3.37
2022-07-30T00:53:28.017Z,3.53
2022-07-30T00:56:32.485Z,4.13
2022-07-30T00:59:35.405Z,3.47
2022-07-30T01:02:38.389Z,3.40
2022-07-30T01:05:41.481Z,3.20
2022-07-30T01:08:44.472Z,3.30
2022-07-30T01:11:48.912Z,3.30
2022-07-30T01:14:51.993Z,3.30
2022-07-30T01:17:57.860Z,3.37
2022-07-30T01:21:06.614Z,3.27
2022-07-30T01:24:20.493Z,3.37
2022-07-30T01:27:26.067Z,3.53
2022-07-30T01:30:32.167Z,3.47
2022-07-30T01:33:41.633Z,3.17
2022-07-30T01:36:47.561Z,3.33
2022-07-30T01:39:52.033Z,3.47
2022-07-30T01:42:58.475Z,3.70
2022-07-30T01:46:03.819Z,3.63
2022-07-30T01:49:08.879Z,3.37
2022-07-30T01:52:13.374Z,3.40
2022-07-30T01:55:18.751Z,3.40
2022-07-30T01:58:25.670Z,3.10
2022-07-30T02:01:28.719Z,3.57
2022-07-30T02:04:32.023Z,3.47
2022-07-30T02:07:40.613Z,3.40
2022-07-30T02:10:46.963Z,3.53
2022-07-30T02:13:55.923Z,3.23
2022-07-30T02:17:02.298Z,3.50
2022-07-30T02:20:09.722Z,3.33
2022-07-30T02:23:16.200Z,3.30
2022-07-30T02:26:23.844Z,3.23
2022-07-30T02:29:33.369Z,3.47
2022-07-30T02:32:39.740Z,3.40
2022-07-30T02:35:43.247Z,3.33
2022-07-30T02:38:47.700Z,3.43
2022-07-30T02:41:53.748Z,3.13
2022-07-30T02:45:00.208Z,3.00
2022-07-30T02:48:06.615Z,3.50
2022-07-30T02:51:11.132Z,3.70
2022-07-30T02:54:15.858Z,3.20
2022-07-30T02:57:21.141Z,3.20
2022-07-30T03:00:26.961Z,3.30
2022-07-30T03:03:30.486Z,3.10
2022-07-30T03:06:34.415Z,3.43
2022-07-30T03:09:50.907Z,2.90
2022-07-30T03:12:57.144Z,3.50
2022-07-30T03:16:05.274Z,2.87
2022-07-30T03:19:11.014Z,3.33
2022-07-30T03:22:15.650Z,2.80
2022-07-30T03:25:23.784Z,3.17
2022-07-30T03:28:27.811Z,3.07
2022-07-30T03:31:36.139Z,3.07
2022-07-30T03:34:40.951Z,3.07
2022-07-30T03:37:44.793Z,3.17
2022-07-30T03:40:48.694Z,2.93
2022-07-30T03:43:52.694Z,3.00
2022-07-30T03:46:59.098Z,3.17
2022-07-30T03:50:03.339Z,3.00
2022-07-30T03:53:06.971Z,3.40
2022-07-30T03:56:11.209Z,2.97
2022-07-30T03:59:15.790Z,2.80
2022-07-30T04:02:20.327Z,2.90
2022-07-30T04:05:23.860Z,2.70
2022-07-30T04:08:27.127Z,2.90
2022-07-30T04:11:40.471Z,3.13
2022-07-30T04:14:45.998Z,3.07
2022-07-30T04:17:54.626Z,2.90
2022-07-30T04:20:59.205Z,2.97
2022-07-30T04:24:05.232Z,3.37
2022-07-30T04:27:08.930Z,2.83
2022-07-30T04:30:13.084Z,3.00
2022-07-30T04:33:17.429Z,3.00
2022-07-30T04:36:20.419Z,2.77
2022-07-30T04:39:23.446Z,2.60
2022-07-30T04:42:27.354Z,2.90
2022-07-30T04:45:30.378Z,2.80
2022-07-30T04:48:34.698Z,2.80
2022-07-30T04:51:39.403Z,2.90
2022-07-30T04:54:45.008Z,2.50
2022-07-30T04:57:49.597Z,2.30
2022-07-30T05:00:54.118Z,2.77
2022-07-30T05:04:00.961Z,2.80
2022-07-30T05:07:05.091Z,2.50
2022-07-30T05:10:09.173Z,2.80
2022-07-30T05:13:14.291Z,2.83
2022-07-30T05:16:17.750Z,2.80
2022-07-30T05:19:23.322Z,2.47
2022-07-30T05:22:30.072Z,2.57
2022-07-30T05:25:33.003Z,2.30
2022-07-30T05:28:36.243Z,3.10
2022-07-30T05:31:40.243Z,2.70
2022-07-30T05:34:44.510Z,2.60
2022-07-30T05:37:53.034Z,2.43
2022-07-30T05:40:56.049Z,2.80
2022-07-30T05:43:59.034Z,2.80
2022-07-30T05:47:02.297Z,2.63
2022-07-30T05:50:07.980Z,2.13
2022-07-30T05:53:10.970Z,2.40
2022-07-30T05:56:13.994Z,2.30
2022-07-30T05:59:17.102Z,2.37
2022-07-30T06:02:20.160Z,2.70
2022-07-30T06:05:29.304Z,2.27
2022-07-30T06:08:32.328Z,2.90
2022-07-30T06:11:35.258Z,2.67
2022-07-30T06:14:38.235Z,2.57
2022-07-30T06:17:51.101Z,2.47
2022-07-30T06:21:01.911Z,2.47
2022-07-30T06:24:05.090Z,2.40
2022-07-30T06:27:08.194Z,2.73
2022-07-30T06:30:12.496Z,2.77
2022-07-30T06:33:15.973Z,2.80
2022-07-30T06:36:20.606Z,2.47
2022-07-30T06:42:50.572Z,2.30
2022-07-30T06:45:53.719Z,2.50
2022-07-30T06:48:56.750Z,2.50
2022-07-30T06:52:01.485Z,2.63
2022-07-30T06:55:05.520Z,2.63
2022-07-30T06:58:08.388Z,2.50
2022-07-30T07:01:11.688Z,2.53
2022-07-30T07:04:14.860Z,2.23
2022-07-30T07:07:31.747Z,2.60
2022-07-30T07:10:42.275Z,2.37
2022-07-30T07:13:45.450Z,2.50
2022-07-30T07:16:49.646Z,2.33
2022-07-30T07:19:59.676Z,2.37
2022-07-30T07:23:09.374Z,2.70
2022-07-30T07:26:15.570Z,2.70
2022-07-30T07:29:18.515Z,2.67
2022-07-30T07:32:21.493Z,2.33
2022-07-30T07:35:24.414Z,2.50
2022-07-30T07:38:28.815Z,2.90
2022-07-30T07:41:48.706Z,2.53
2022-07-30T07:44:52.373Z,2.33
2022-07-30T07:47:55.372Z,2.50
2022-07-30T07:51:00.391Z,2.40
2022-07-30T07:54:21.002Z,2.53
2022-07-30T07:57:24.368Z,2.40
2022-07-30T08:00:27.289Z,2.13
2022-07-30T08:03:30.436Z,2.50
2022-07-30T08:06:33.453Z,2.37
2022-07-30T08:09:40.785Z,2.97
2022-07-30T08:12:47.445Z,2.60
2022-07-30T08:15:50.406Z,2.27
2022-07-30T08:18:53.347Z,2.33
2022-07-30T08:21:56.298Z,2.50
2022-07-30T08:25:00.592Z,2.70
2022-07-30T08:28:07.012Z,2.87
2022-07-30T08:31:10.269Z,2.40
2022-07-30T08:34:13.675Z,2.30
2022-07-30T08:37:16.704Z,2.17
2022-07-30T08:40:21.868Z,2.93
2022-07-30T08:43:26.754Z,2.53
2022-07-30T08:46:33.041Z,2.87
2022-07-30T08:49:36.588Z,2.70
2022-07-30T08:52:39.662Z,2.90
2022-07-30T08:55:44.595Z,2.60
2022-07-30T08:58:48.364Z,2.70
2022-07-30T09:01:52.115Z,3.00
2022-07-30T09:04:55.785Z,2.90
2022-07-30T09:07:58.885Z,3.20
2022-07-30T09:11:03.264Z,2.93
2022-07-30T09:14:10.852Z,2.80
2022-07-30T09:17:14.067Z,2.67
2022-07-30T09:20:17.670Z,2.27
2022-07-30T09:23:20.688Z,3.23
2022-07-30T09:26:25.043Z,2.70
2022-07-30T09:29:30.082Z,3.10
2022-07-30T09:32:49.656Z,2.37
2022-07-30T09:35:57.490Z,2.70
2022-07-30T09:39:00.538Z,2.47
2022-07-30T09:42:18.059Z,2.23
2022-07-30T09:45:21.159Z,2.67
2022-07-30T09:48:25.682Z,2.80
2022-07-30T09:51:56.227Z,2.20
2022-07-30T09:55:00.270Z,2.50
2022-07-30T09:58:06.656Z,2.80
2022-07-30T10:01:11.644Z,2.10
2022-07-30T10:04:24.984Z,2.30
2022-07-30T10:07:28.036Z,2.63
2022-07-30T10:10:32.920Z,2.50
2022-07-30T10:13:39.287Z,3.33
2022-07-30T10:16:42.996Z,2.30
2022-07-30T10:19:47.457Z,2.80
2022-07-30T10:22:52.490Z,2.60
2022-07-30T10:25:57.038Z,2.90
2022-07-30T10:29:02.740Z,2.20
2022-07-30T10:32:06.813Z,2.50
2022-07-30T10:35:13.732Z,2.53
2022-07-30T10:38:41.706Z,2.60
2022-07-30T10:41:57.256Z,2.43
2022-07-30T10:45:18.474Z,2.37
2022-07-30T10:48:22.289Z,2.40
2022-07-30T10:51:44.125Z,2.40
2022-07-30T10:54:54.626Z,2.40
2022-07-30T10:58:04.271Z,2.07
2022-07-30T11:01:18.546Z,2.40
2022-07-30T11:04:25.594Z,2.40
2022-07-30T11:07:31.527Z,2.10
2022-07-30T11:10:39.628Z,2.40
2022-07-30T11:13:54.273Z,2.40
2022-07-30T11:17:02.683Z,1.97
2022-07-30T11:20:12.214Z,2.43
2022-07-30T11:23:37.742Z,2.20
2022-07-30T11:26:50.016Z,2.30
2022-07-30T11:29:53.056Z,2.20
2022-07-30T11:33:23.495Z,2.10
2022-07-30T11:36:35.830Z,2.20
2022-07-30T11:40:12.503Z,1.93
2022-07-30T11:43:21.828Z,2.20
2022-07-30T11:46:49.451Z,1.80
2022-07-30T11:49:54.249Z,2.10
2022-07-30T11:52:59.556Z,1.90
2022-07-30T11:56:03.425Z,1.80
2022-07-30T11:59:07.890Z,1.90
2022-07-30T12:02:10.882Z,2.00
2022-07-30T12:05:15.581Z,2.27
2022-07-30T12:08:33.525Z,2.20
2022-07-30T12:11:39.218Z,2.03
2022-07-30T12:14:42.098Z,2.23
2022-07-30T12:17:46.004Z,2.13
2022-07-30T12:20:57.603Z,1.80
2022-07-30T12:24:04.485Z,2.23
2022-07-30T12:27:08.141Z,2.00
2022-07-30T12:30:11.655Z,2.00
2022-07-30T12:33:15.508Z,2.20
2022-07-30T12:36:31.890Z,2.20
2022-07-30T12:39:34.848Z,2.37
2022-07-30T12:42:38.746Z,2.67
2022-07-30T12:45:52.194Z,2.13
2022-07-30T12:49:01.209Z,2.10
2022-07-30T12:52:18.441Z,2.40
2022-07-30T12:55:30.912Z,2.47
2022-07-30T12:58:37.789Z,2.27
2022-07-30T13:01:41.873Z,2.50
2022-07-30T13:05:10.950Z,2.10
2022-07-30T13:08:16.501Z,2.10
2022-07-30T13:11:20.466Z,2.20
2022-07-30T13:14:24.643Z,2.50
2022-07-30T13:17:29.766Z,2.10
2022-07-30T13:20:32.681Z,1.97
2022-07-30T13:23:37.690Z,2.23
2022-07-30T13:26:40.683Z,2.00
2022-07-30T13:29:43.669Z,2.20
2022-07-30T13:32:46.510Z,1.97
2022-07-30T13:35:49.638Z,2.40
2022-07-30T13:38:53.967Z,2.30
2022-07-30T13:41:57.012Z,2.10
2022-07-30T13:44:59.952Z,2.20
2022-07-30T13:48:03.943Z,2.10
2022-07-30T13:51:07.260Z,2.60
2022-07-30T13:54:12.506Z,2.30
2022-07-30T13:57:15.544Z,2.40
2022-07-30T14:00:18.816Z,2.67
2022-07-30T14:03:21.797Z,2.20
2022-07-30T14:06:24.778Z,2.60
2022-07-30T14:09:29.098Z,2.63
2022-07-30T14:12:32.012Z,2.03
2022-07-30T14:15:34.977Z,2.27
2022-07-30T14:18:37.884Z,2.60
2022-07-30T14:21:40.798Z,2.20
2022-07-30T14:24:45.095Z,2.33
2022-07-30T14:27:48.294Z,2.10
2022-07-30T14:30:51.214Z,2.10
2022-07-30T14:33:54.159Z,2.60
2022-07-30T14:36:57.114Z,2.13
2022-07-30T14:40:01.463Z,2.43
2022-07-30T14:43:04.513Z,2.37
2022-07-30T14:46:09.583Z,2.27
2022-07-30T14:49:12.564Z,2.10
2022-07-30T14:52:18.843Z,2.40
2022-07-30T14:55:23.102Z,2.10
2022-07-30T14:58:26.162Z,2.10
2022-07-30T15:01:29.150Z,1.90
2022-07-30T15:04:32.138Z,2.63
2022-07-30T15:07:35.087Z,2.70
2022-07-30T15:10:40.935Z,2.57
2022-07-30T15:13:50.138Z,3.00
2022-07-30T15:16:53.733Z,2.67
2022-07-30T15:19:56.734Z,2.50
2022-07-30T15:22:59.623Z,2.63
2022-07-30T15:26:03.985Z,2.40
2022-07-30T15:29:11.656Z,2.60
2022-07-30T15:32:17.344Z,2.70
2022-07-30T15:35:20.256Z,2.40
2022-07-30T15:38:23.262Z,2.43
2022-07-30T15:41:27.583Z,2.47
2022-07-30T15:44:30.597Z,2.43
2022-07-30T15:47:33.529Z,2.23
2022-07-30T15:50:36.608Z,2.30
2022-07-30T15:53:39.508Z,2.17
2022-07-30T15:56:45.236Z,2.23
2022-07-30T15:59:48.167Z,2.23
2022-07-30T16:02:51.436Z,2.33
2022-07-30T16:05:54.400Z,2.90
2022-07-30T16:08:57.331Z,2.17
2022-07-30T16:12:02.163Z,2.07
2022-07-30T16:15:06.057Z,2.90
2022-07-30T16:18:08.976Z,2.30
2022-07-30T16:21:12.529Z,2.20
2022-07-30T16:24:15.506Z,2.00
2022-07-30T16:27:20.191Z,2.77
2022-07-30T16:30:27.280Z,2.90
2022-07-30T16:33:30.636Z,2.37
2022-07-30T16:36:33.890Z,2.60
2022-07-30T16:39:37.048Z,2.23
2022-07-30T16:42:41.333Z,2.30
2022-07-30T16:45:44.720Z,2.30
2022-07-30T16:48:47.720Z,2.20
2022-07-30T16:51:54.075Z,2.80
2022-07-30T16:54:57.022Z,2.03
2022-07-30T16:58:01.440Z,2.30
2022-07-30T17:01:04.710Z,2.23
2022-07-30T17:04:07.632Z,2.37
2022-07-30T17:07:10.562Z,2.50
2022-07-30T17:10:13.706Z,2.33
2022-07-30T17:13:18.156Z,2.10
2022-07-30T17:16:21.415Z,2.40
2022-07-30T17:19:24.348Z,2.60
2022-07-30T17:22:27.316Z,2.13
2022-07-30T17:25:30.482Z,2.50
2022-07-30T17:28:34.870Z,2.53
2022-07-30T17:31:39.433Z,2.50
2022-07-30T17:34:42.563Z,2.50
2022-07-30T17:37:45.506Z,2.20
2022-07-30T17:40:48.635Z,2.83
2022-07-30T17:43:52.928Z,2.10
2022-07-30T17:46:55.882Z,2.40
2022-07-30T17:49:58.777Z,2.50
2022-07-30T17:53:03.577Z,2.37
2022-07-30T17:56:07.414Z,2.63
2022-07-30T17:59:30.949Z,2.40
2022-07-30T18:02:34.306Z,2.13
2022-07-30T18:05:37.207Z,2.23
2022-07-30T18:08:40.110Z,2.27
2022-07-30T18:11:43.714Z,2.27
2022-07-30T18:14:48.022Z,2.60
2022-07-30T18:17:51.000Z,2.10
2022-07-30T18:20:53.930Z,2.73
2022-07-30T18:23:56.860Z,2.20
2022-07-30T18:27:00.869Z,2.10
2022-07-30T18:30:05.869Z,2.30
2022-07-30T18:33:09.042Z,2.20
2022-07-30T18:36:12.168Z,2.13
2022-07-30T18:39:15.181Z,2.40
2022-07-30T18:42:18.058Z,2.20
2022-07-30T18:45:22.757Z,2.50
2022-07-30T18:48:26.483Z,2.90
2022-07-30T18:51:29.452Z,2.10
2022-07-30T18:54:32.521Z,2.33
2022-07-30T18:57:36.041Z,5.03
2022-07-30T19:00:43.220Z,3.63
2022-07-30T19:03:46.594Z,2.87
2022-07-30T19:06:49.660Z,2.63
2022-07-30T19:09:55.438Z,2.50
2022-07-30T19:12:58.360Z,2.63
2022-07-30T19:16:02.609Z,2.53
2022-07-30T19:19:05.830Z,2.60
2022-07-30T19:22:08.797Z,2.90
2022-07-30T19:25:11.954Z,3.13
2022-07-30T19:28:17.006Z,2.90
2022-07-30T19:31:21.474Z,3.07
2022-07-30T19:34:24.450Z,2.80
2022-07-30T19:37:27.392Z,4.10
2022-07-30T19:40:30.564Z,4.50
2022-07-30T19:43:34.001Z,4.63
2022-07-30T19:46:38.628Z,4.13
2022-07-30T19:49:44.111Z,3.97
2022-07-30T19:52:51.583Z,4.60
2022-07-30T19:56:11.409Z,4.30
2022-07-30T19:59:15.335Z,4.67
2022-07-30T20:02:19.678Z,5.47
2022-07-30T20:05:25.596Z,5.10
2022-07-30T20:08:33.442Z,5.90
2022-07-30T20:11:36.651Z,6.87
2022-07-30T20:14:43.293Z,6.07
2022-07-30T20:17:47.950Z,5.60
2022-07-30T20:20:50.933Z,5.63
2022-07-30T20:23:54.497Z,6.27
2022-07-30T20:26:57.652Z,6.63
2022-07-30T20:30:00.527Z,6.30
2022-07-30T20:33:05.413Z,5.93
2022-07-30T20:36:10.333Z,5.77
2022-07-30T20:39:16.686Z,5.97
2022-07-30T20:42:21.894Z,5.87
2022-07-30T20:45:40.256Z,6.63
2022-07-30T20:48:45.167Z,5.87
2022-07-30T20:51:50.318Z,6.60
2022-07-30T20:54:53.369Z,5.80
2022-07-30T20:58:07.996Z,5.97
2022-07-30T21:01:17.569Z,5.03
2022-07-30T21:04:25.515Z,5.77
2022-07-30T21:07:36.447Z,4.73
2022-07-30T21:10:40.898Z,4.50
2022-07-30T21:13:47.711Z,4.37
2022-07-30T21:16:55.667Z,4.60
2022-07-30T21:20:00.339Z,4.10
2022-07-30T21:23:05.993Z,3.87
2022-07-30T21:26:13.921Z,4.37
2022-07-30T21:29:17.978Z,4.30
2022-07-30T21:32:21.172Z,4.23
2022-07-30T21:35:31.720Z,4.63
2022-07-30T21:38:35.436Z,4.43
2022-07-30T21:41:40.927Z,4.70
2022-07-30T21:44:43.987Z,4.47
2022-07-30T21:47:48.702Z,4.80
2022-07-30T21:50:53.551Z,4.93
2022-07-30T21:53:57.870Z,5.07
2022-07-30T21:57:01.555Z,5.00
2022-07-30T22:00:09.155Z,5.00
2022-07-30T22:04:03.169Z,4.73
2022-07-30T22:06:40.462Z,4.90
2022-07-30T22:09:44.182Z,4.77
2022-07-30T22:12:47.114Z,4.63
2022-07-30T22:15:50.917Z,4.57
2022-07-30T22:18:53.857Z,5.10
2022-07-30T22:21:58.089Z,4.30
2022-07-30T22:25:06.966Z,4.40
2022-07-30T22:28:13.501Z,4.33
2022-07-30T22:31:16.457Z,4.30
2022-07-30T22:34:19.522Z,4.23
2022-07-30T22:37:23.863Z,4.60
2022-07-30T22:40:35.067Z,4.57
2022-07-30T22:43:40.919Z,4.87
2022-07-30T22:46:44.145Z,5.10
2022-07-30T22:49:51.983Z,5.13
2022-07-30T22:56:23.857Z,5.60
2022-07-30T22:59:57.659Z,5.57
2022-07-30T23:02:51.644Z,5.93
2022-07-30T23:05:55.351Z,5.97
2022-07-30T23:09:01.208Z,6.23
2022-07-30T23:12:04.524Z,5.87
2022-07-30T23:12:30.688Z,5.20
2022-07-30T23:15:09.034Z,5.77
2022-07-30T23:18:12.119Z,6.00
2022-07-30T23:21:15.189Z,5.87
2022-07-30T23:24:19.802Z,5.57
2022-07-30T23:27:22.738Z,5.93
2022-07-30T23:30:32.032Z,5.10
2022-07-30T23:33:37.334Z,4.80
2022-07-30T23:36:40.294Z,5.40
2022-07-30T23:39:44.610Z,5.07
2022-07-30T23:42:50.128Z,5.40
2022-07-30T23:45:53.179Z,5.13
2022-07-30T23:48:56.205Z,5.27
2022-07-30T23:51:59.808Z,5.30
2022-07-30T23:55:04.344Z,5.33
2022-07-30T23:58:07.500Z,5.63
